sensor_id;sensor_type;location;lat;lon;timestamp;P1;durP1;ratioP1;P2;durP2;ratioP2
8225;SDS011;4154;48.810;9.012;2023-04-24T00:00:17;1.10;;;0.97;;
8225;SDS011;4154;48.810;9.012;2023-04-24T00:02:43;1.50;;;1.10;;
8225;SDS011;4154;48.810;9.012;2023-04-24T00:05:11;1.40;;;0.83;;
8225;SDS011;4154;48.810;9.012;2023-04-24T00:07:40;1.40;;;0.87;;
8225;SDS011;4154;48.810;9.012;2023-04-24T00:10:07;1.27;;;1.10;;
8225;SDS011;4154;48.810;9.012;2023-04-24T00:12:34;1.03;;;0.70;;
8225;SDS011;4154;48.810;9.012;2023-04-24T00:15:00;1.40;;;1.20;;
8225;SDS011;4154;48.810;9.012;2023-04-24T00:17:27;0.90;;;0.90;;
8225;SDS011;4154;48.810;9.012;2023-04-24T00:19:53;1.87;;;0.90;;
8225;SDS011;4154;48.810;9.012;2023-04-24T00:22:26;1.10;;;0.80;;
8225;SDS011;4154;48.810;9.012;2023-04-24T00:24:53;0.70;;;0.70;;
8225;SDS011;4154;48.810;9.012;2023-04-24T00:27:19;1.10;;;0.90;;
8225;SDS011;4154;48.810;9.012;2023-04-24T00:29:45;0.80;;;0.80;;
8225;SDS011;4154;48.810;9.012;2023-04-24T00:32:12;0.93;;;0.80;;
8225;SDS011;4154;48.810;9.012;2023-04-24T00:34:38;0.70;;;0.70;;
8225;SDS011;4154;48.810;9.012;2023-04-24T00:37:04;0.80;;;0.80;;
8225;SDS011;4154;48.810;9.012;2023-04-24T00:39:30;1.17;;;0.80;;
8225;SDS011;4154;48.810;9.012;2023-04-24T00:41:56;1.73;;;0.83;;
8225;SDS011;4154;48.810;9.012;2023-04-24T00:44:21;1.37;;;0.70;;
8225;SDS011;4154;48.810;9.012;2023-04-24T00:46:48;0.90;;;0.80;;
8225;SDS011;4154;48.810;9.012;2023-04-24T00:49:19;1.63;;;0.90;;
8225;SDS011;4154;48.810;9.012;2023-04-24T00:51:46;1.43;;;0.90;;
8225;SDS011;4154;48.810;9.012;2023-04-24T00:54:14;3.90;;;1.10;;
8225;SDS011;4154;48.810;9.012;2023-04-24T00:56:40;0.70;;;0.70;;
8225;SDS011;4154;48.810;9.012;2023-04-24T00:59:07;0.83;;;0.83;;
8225;SDS011;4154;48.810;9.012;2023-04-24T01:01:34;1.50;;;0.80;;
8225;SDS011;4154;48.810;9.012;2023-04-24T01:04:01;0.80;;;0.57;;
8225;SDS011;4154;48.810;9.012;2023-04-24T01:06:28;0.77;;;0.77;;
8225;SDS011;4154;48.810;9.012;2023-04-24T01:08:56;1.93;;;0.73;;
8225;SDS011;4154;48.810;9.012;2023-04-24T01:11:24;0.80;;;0.80;;
8225;SDS011;4154;48.810;9.012;2023-04-24T01:13:50;1.20;;;0.90;;
8225;SDS011;4154;48.810;9.012;2023-04-24T01:16:17;1.60;;;0.70;;
8225;SDS011;4154;48.810;9.012;2023-04-24T01:18:45;1.10;;;1.00;;
8225;SDS011;4154;48.810;9.012;2023-04-24T01:21:13;0.83;;;0.70;;
8225;SDS011;4154;48.810;9.012;2023-04-24T01:23:42;1.90;;;0.80;;
8225;SDS011;4154;48.810;9.012;2023-04-24T01:26:11;1.23;;;0.90;;
8225;SDS011;4154;48.810;9.012;2023-04-24T01:28:40;1.20;;;0.80;;
8225;SDS011;4154;48.810;9.012;2023-04-24T01:31:06;0.80;;;0.80;;
8225;SDS011;4154;48.810;9.012;2023-04-24T01:33:32;1.27;;;0.67;;
8225;SDS011;4154;48.810;9.012;2023-04-24T01:35:59;1.00;;;0.87;;
8225;SDS011;4154;48.810;9.012;2023-04-24T01:38:25;0.70;;;0.70;;
8225;SDS011;4154;48.810;9.012;2023-04-24T01:40:51;2.10;;;1.00;;
8225;SDS011;4154;48.810;9.012;2023-04-24T01:43:18;0.80;;;0.80;;
8225;SDS011;4154;48.810;9.012;2023-04-24T01:45:44;1.00;;;0.77;;
8225;SDS011;4154;48.810;9.012;2023-04-24T01:48:11;1.47;;;0.80;;
8225;SDS011;4154;48.810;9.012;2023-04-24T01:50:38;1.07;;;0.80;;
8225;SDS011;4154;48.810;9.012;2023-04-24T01:53:04;1.43;;;0.80;;
8225;SDS011;4154;48.810;9.012;2023-04-24T01:55:30;1.50;;;0.90;;
8225;SDS011;4154;48.810;9.012;2023-04-24T01:57:56;1.17;;;0.80;;
8225;SDS011;4154;48.810;9.012;2023-04-24T02:00:24;1.87;;;0.80;;
8225;SDS011;4154;48.810;9.012;2023-04-24T02:02:50;1.50;;;0.80;;
8225;SDS011;4154;48.810;9.012;2023-04-24T02:05:17;1.60;;;0.90;;
8225;SDS011;4154;48.810;9.012;2023-04-24T02:07:43;1.00;;;0.80;;
8225;SDS011;4154;48.810;9.012;2023-04-24T02:10:08;0.80;;;0.73;;
8225;SDS011;4154;48.810;9.012;2023-04-24T02:12:35;0.93;;;0.80;;
8225;SDS011;4154;48.810;9.012;2023-04-24T02:15:01;1.67;;;0.80;;
8225;SDS011;4154;48.810;9.012;2023-04-24T02:17:27;0.77;;;0.77;;
8225;SDS011;4154;48.810;9.012;2023-04-24T02:19:53;1.17;;;0.80;;
8225;SDS011;4154;48.810;9.012;2023-04-24T02:22:19;1.13;;;0.80;;
8225;SDS011;4154;48.810;9.012;2023-04-24T02:24:45;1.00;;;0.87;;
8225;SDS011;4154;48.810;9.012;2023-04-24T02:27:11;1.67;;;0.73;;
8225;SDS011;4154;48.810;9.012;2023-04-24T02:29:36;0.70;;;0.70;;
8225;SDS011;4154;48.810;9.012;2023-04-24T02:32:02;1.10;;;1.00;;
8225;SDS011;4154;48.810;9.012;2023-04-24T02:34:29;1.80;;;1.10;;
8225;SDS011;4154;48.810;9.012;2023-04-24T02:36:55;1.10;;;1.00;;
8225;SDS011;4154;48.810;9.012;2023-04-24T02:39:21;1.20;;;0.93;;
8225;SDS011;4154;48.810;9.012;2023-04-24T02:41:47;1.50;;;0.93;;
8225;SDS011;4154;48.810;9.012;2023-04-24T02:44:13;2.87;;;0.90;;
8225;SDS011;4154;48.810;9.012;2023-04-24T02:46:39;1.17;;;1.07;;
8225;SDS011;4154;48.810;9.012;2023-04-24T02:49:06;1.33;;;0.80;;
8225;SDS011;4154;48.810;9.012;2023-04-24T02:51:32;1.00;;;0.90;;
8225;SDS011;4154;48.810;9.012;2023-04-24T02:53:58;1.43;;;0.87;;
8225;SDS011;4154;48.810;9.012;2023-04-24T02:56:24;2.50;;;1.13;;
8225;SDS011;4154;48.810;9.012;2023-04-24T02:58:50;1.30;;;0.90;;
8225;SDS011;4154;48.810;9.012;2023-04-24T03:01:16;0.87;;;0.87;;
8225;SDS011;4154;48.810;9.012;2023-04-24T03:03:42;1.60;;;0.93;;
8225;SDS011;4154;48.810;9.012;2023-04-24T03:06:08;1.83;;;0.73;;
8225;SDS011;4154;48.810;9.012;2023-04-24T03:08:34;1.77;;;0.87;;
8225;SDS011;4154;48.810;9.012;2023-04-24T03:11:01;0.93;;;0.80;;
8225;SDS011;4154;48.810;9.012;2023-04-24T03:13:26;1.10;;;1.00;;
8225;SDS011;4154;48.810;9.012;2023-04-24T03:15:52;1.00;;;0.90;;
8225;SDS011;4154;48.810;9.012;2023-04-24T03:18:19;1.10;;;1.00;;
8225;SDS011;4154;48.810;9.012;2023-04-24T03:20:45;1.23;;;0.73;;
8225;SDS011;4154;48.810;9.012;2023-04-24T03:23:12;0.80;;;0.80;;
8225;SDS011;4154;48.810;9.012;2023-04-24T03:25:38;0.73;;;0.73;;
8225;SDS011;4154;48.810;9.012;2023-04-24T03:28:04;1.47;;;0.97;;
8225;SDS011;4154;48.810;9.012;2023-04-24T03:30:30;3.50;;;0.90;;
8225;SDS011;4154;48.810;9.012;2023-04-24T03:32:56;1.37;;;0.80;;
8225;SDS011;4154;48.810;9.012;2023-04-24T03:35:22;0.70;;;0.70;;
8225;SDS011;4154;48.810;9.012;2023-04-24T03:37:48;1.37;;;0.90;;
8225;SDS011;4154;48.810;9.012;2023-04-24T03:40:14;0.80;;;0.80;;
8225;SDS011;4154;48.810;9.012;2023-04-24T03:42:41;1.30;;;0.80;;
8225;SDS011;4154;48.810;9.012;2023-04-24T03:45:07;0.90;;;0.90;;
8225;SDS011;4154;48.810;9.012;2023-04-24T03:47:33;1.17;;;0.97;;
8225;SDS011;4154;48.810;9.012;2023-04-24T03:49:59;0.80;;;0.80;;
8225;SDS011;4154;48.810;9.012;2023-04-24T03:52:25;2.80;;;0.97;;
8225;SDS011;4154;48.810;9.012;2023-04-24T03:54:51;2.93;;;1.00;;
8225;SDS011;4154;48.810;9.012;2023-04-24T03:57:17;0.93;;;0.87;;
8225;SDS011;4154;48.810;9.012;2023-04-24T03:59:43;1.03;;;0.90;;
8225;SDS011;4154;48.810;9.012;2023-04-24T04:02:09;1.57;;;1.00;;
8225;SDS011;4154;48.810;9.012;2023-04-24T04:04:34;1.30;;;1.20;;
8225;SDS011;4154;48.810;9.012;2023-04-24T04:07:00;1.07;;;0.90;;
8225;SDS011;4154;48.810;9.012;2023-04-24T04:09:27;2.43;;;1.00;;
8225;SDS011;4154;48.810;9.012;2023-04-24T04:11:54;1.27;;;1.00;;
8225;SDS011;4154;48.810;9.012;2023-04-24T04:14:21;1.83;;;1.40;;
8225;SDS011;4154;48.810;9.012;2023-04-24T04:16:47;1.00;;;1.00;;
8225;SDS011;4154;48.810;9.012;2023-04-24T04:19:13;1.47;;;1.00;;
8225;SDS011;4154;48.810;9.012;2023-04-24T04:21:38;1.63;;;1.20;;
8225;SDS011;4154;48.810;9.012;2023-04-24T04:24:04;1.20;;;1.10;;
8225;SDS011;4154;48.810;9.012;2023-04-24T04:26:32;1.30;;;1.20;;
8225;SDS011;4154;48.810;9.012;2023-04-24T04:28:58;1.00;;;1.00;;
8225;SDS011;4154;48.810;9.012;2023-04-24T04:31:28;1.20;;;1.10;;
8225;SDS011;4154;48.810;9.012;2023-04-24T04:33:55;0.90;;;0.90;;
8225;SDS011;4154;48.810;9.012;2023-04-24T04:36:21;1.10;;;1.00;;
8225;SDS011;4154;48.810;9.012;2023-04-24T04:38:48;0.90;;;0.90;;
8225;SDS011;4154;48.810;9.012;2023-04-24T04:41:14;0.93;;;0.93;;
8225;SDS011;4154;48.810;9.012;2023-04-24T04:43:41;1.10;;;1.10;;
8225;SDS011;4154;48.810;9.012;2023-04-24T04:46:07;1.00;;;1.00;;
8225;SDS011;4154;48.810;9.012;2023-04-24T04:48:36;1.17;;;1.07;;
8225;SDS011;4154;48.810;9.012;2023-04-24T04:51:02;1.23;;;1.17;;
8225;SDS011;4154;48.810;9.012;2023-04-24T04:53:28;1.20;;;1.10;;
8225;SDS011;4154;48.810;9.012;2023-04-24T04:55:54;1.67;;;1.10;;
8225;SDS011;4154;48.810;9.012;2023-04-24T04:58:20;0.80;;;0.80;;
8225;SDS011;4154;48.810;9.012;2023-04-24T05:00:46;1.93;;;1.10;;
8225;SDS011;4154;48.810;9.012;2023-04-24T05:03:12;1.00;;;1.00;;
8225;SDS011;4154;48.810;9.012;2023-04-24T05:05:38;1.20;;;1.10;;
8225;SDS011;4154;48.810;9.012;2023-04-24T05:08:05;1.43;;;1.10;;
8225;SDS011;4154;48.810;9.012;2023-04-24T05:10:33;1.23;;;1.20;;
8225;SDS011;4154;48.810;9.012;2023-04-24T05:12:59;1.20;;;1.10;;
8225;SDS011;4154;48.810;9.012;2023-04-24T05:15:25;2.30;;;1.30;;
8225;SDS011;4154;48.810;9.012;2023-04-24T05:17:52;1.23;;;1.13;;
8225;SDS011;4154;48.810;9.012;2023-04-24T05:20:18;1.23;;;1.23;;
8225;SDS011;4154;48.810;9.012;2023-04-24T05:22:43;1.13;;;1.03;;
8225;SDS011;4154;48.810;9.012;2023-04-24T05:25:11;1.37;;;1.27;;
8225;SDS011;4154;48.810;9.012;2023-04-24T05:27:37;1.20;;;1.10;;
8225;SDS011;4154;48.810;9.012;2023-04-24T05:30:04;1.33;;;1.10;;
8225;SDS011;4154;48.810;9.012;2023-04-24T05:32:31;1.30;;;1.20;;
8225;SDS011;4154;48.810;9.012;2023-04-24T05:34:56;1.47;;;1.30;;
8225;SDS011;4154;48.810;9.012;2023-04-24T05:37:22;3.70;;;1.30;;
8225;SDS011;4154;48.810;9.012;2023-04-24T05:39:48;1.30;;;1.30;;
8225;SDS011;4154;48.810;9.012;2023-04-24T05:42:14;1.60;;;1.50;;
8225;SDS011;4154;48.810;9.012;2023-04-24T05:44:40;1.40;;;1.30;;
8225;SDS011;4154;48.810;9.012;2023-04-24T05:47:06;1.83;;;1.50;;
8225;SDS011;4154;48.810;9.012;2023-04-24T05:49:32;1.47;;;1.37;;
8225;SDS011;4154;48.810;9.012;2023-04-24T05:51:58;1.70;;;1.60;;
8225;SDS011;4154;48.810;9.012;2023-04-24T05:54:24;2.37;;;1.50;;
8225;SDS011;4154;48.810;9.012;2023-04-24T05:56:50;1.73;;;1.63;;
8225;SDS011;4154;48.810;9.012;2023-04-24T05:59:19;1.70;;;1.60;;
8225;SDS011;4154;48.810;9.012;2023-04-24T06:01:45;1.77;;;1.67;;
8225;SDS011;4154;48.810;9.012;2023-04-24T06:04:11;1.70;;;1.60;;
8225;SDS011;4154;48.810;9.012;2023-04-24T06:06:38;1.70;;;1.60;;
8225;SDS011;4154;48.810;9.012;2023-04-24T06:09:05;1.70;;;1.60;;
8225;SDS011;4154;48.810;9.012;2023-04-24T06:11:31;2.50;;;1.60;;
8225;SDS011;4154;48.810;9.012;2023-04-24T06:13:57;1.80;;;1.70;;
8225;SDS011;4154;48.810;9.012;2023-04-24T06:16:23;1.70;;;1.60;;
8225;SDS011;4154;48.810;9.012;2023-04-24T06:18:49;2.13;;;1.53;;
8225;SDS011;4154;48.810;9.012;2023-04-24T06:21:15;1.63;;;1.53;;
8225;SDS011;4154;48.810;9.012;2023-04-24T06:23:42;1.90;;;1.80;;
8225;SDS011;4154;48.810;9.012;2023-04-24T06:26:08;2.20;;;1.77;;
8225;SDS011;4154;48.810;9.012;2023-04-24T06:28:33;1.53;;;1.43;;
8225;SDS011;4154;48.810;9.012;2023-04-24T06:30:59;1.87;;;1.60;;
8225;SDS011;4154;48.810;9.012;2023-04-24T06:33:25;1.83;;;1.73;;
8225;SDS011;4154;48.810;9.012;2023-04-24T06:35:51;1.77;;;1.67;;
8225;SDS011;4154;48.810;9.012;2023-04-24T06:38:17;1.63;;;1.53;;
8225;SDS011;4154;48.810;9.012;2023-04-24T06:40:43;1.57;;;1.47;;
8225;SDS011;4154;48.810;9.012;2023-04-24T06:43:09;2.80;;;1.60;;
8225;SDS011;4154;48.810;9.012;2023-04-24T06:45:35;1.97;;;1.60;;
8225;SDS011;4154;48.810;9.012;2023-04-24T06:48:03;1.83;;;1.70;;
8225;SDS011;4154;48.810;9.012;2023-04-24T06:50:29;2.47;;;1.80;;
8225;SDS011;4154;48.810;9.012;2023-04-24T06:52:55;2.90;;;1.60;;
8225;SDS011;4154;48.810;9.012;2023-04-24T06:55:21;2.20;;;1.77;;
8225;SDS011;4154;48.810;9.012;2023-04-24T06:57:46;1.70;;;1.60;;
8225;SDS011;4154;48.810;9.012;2023-04-24T07:00:12;1.77;;;1.67;;
8225;SDS011;4154;48.810;9.012;2023-04-24T07:02:38;3.20;;;1.77;;
8225;SDS011;4154;48.810;9.012;2023-04-24T07:05:05;1.60;;;1.50;;
8225;SDS011;4154;48.810;9.012;2023-04-24T07:07:33;1.97;;;1.80;;
8225;SDS011;4154;48.810;9.012;2023-04-24T07:09:59;1.93;;;1.70;;
8225;SDS011;4154;48.810;9.012;2023-04-24T07:12:25;2.63;;;1.70;;
8225;SDS011;4154;48.810;9.012;2023-04-24T07:14:51;1.60;;;1.50;;
8225;SDS011;4154;48.810;9.012;2023-04-24T07:17:17;1.93;;;1.73;;
8225;SDS011;4154;48.810;9.012;2023-04-24T07:19:43;1.97;;;1.47;;
8225;SDS011;4154;48.810;9.012;2023-04-24T07:22:10;1.70;;;1.57;;
8225;SDS011;4154;48.810;9.012;2023-04-24T07:24:41;1.67;;;1.40;;
8225;SDS011;4154;48.810;9.012;2023-04-24T07:27:08;1.80;;;1.60;;
8225;SDS011;4154;48.810;9.012;2023-04-24T07:29:34;2.50;;;1.50;;
8225;SDS011;4154;48.810;9.012;2023-04-24T07:32:00;1.60;;;1.50;;
8225;SDS011;4154;48.810;9.012;2023-04-24T07:34:26;2.13;;;1.70;;
8225;SDS011;4154;48.810;9.012;2023-04-24T07:36:53;1.40;;;1.30;;
8225;SDS011;4154;48.810;9.012;2023-04-24T07:39:19;2.33;;;1.50;;
8225;SDS011;4154;48.810;9.012;2023-04-24T07:41:44;1.30;;;1.20;;
8225;SDS011;4154;48.810;9.012;2023-04-24T07:44:10;1.67;;;1.20;;
8225;SDS011;4154;48.810;9.012;2023-04-24T07:46:36;4.50;;;1.50;;
8225;SDS011;4154;48.810;9.012;2023-04-24T07:49:01;1.90;;;1.50;;
8225;SDS011;4154;48.810;9.012;2023-04-24T07:51:29;1.47;;;1.20;;
8225;SDS011;4154;48.810;9.012;2023-04-24T07:53:56;1.40;;;1.30;;
8225;SDS011;4154;48.810;9.012;2023-04-24T07:56:22;2.40;;;1.37;;
8225;SDS011;4154;48.810;9.012;2023-04-24T07:58:48;4.23;;;1.30;;
8225;SDS011;4154;48.810;9.012;2023-04-24T08:01:14;2.13;;;1.40;;
8225;SDS011;4154;48.810;9.012;2023-04-24T08:03:40;1.40;;;1.30;;
8225;SDS011;4154;48.810;9.012;2023-04-24T08:06:06;1.30;;;1.20;;
8225;SDS011;4154;48.810;9.012;2023-04-24T08:08:32;2.10;;;1.20;;
8225;SDS011;4154;48.810;9.012;2023-04-24T08:10:58;1.40;;;1.30;;
8225;SDS011;4154;48.810;9.012;2023-04-24T08:13:24;4.87;;;1.63;;
8225;SDS011;4154;48.810;9.012;2023-04-24T08:15:50;2.20;;;1.40;;
8225;SDS011;4154;48.810;9.012;2023-04-24T08:18:15;2.10;;;1.30;;
8225;SDS011;4154;48.810;9.012;2023-04-24T08:20:41;4.43;;;1.90;;
8225;SDS011;4154;48.810;9.012;2023-04-24T08:23:07;20.30;;;3.60;;
8225;SDS011;4154;48.810;9.012;2023-04-24T08:25:33;2.83;;;1.43;;
8225;SDS011;4154;48.810;9.012;2023-04-24T08:28:00;2.17;;;1.40;;
8225;SDS011;4154;48.810;9.012;2023-04-24T08:30:29;2.07;;;1.77;;
8225;SDS011;4154;48.810;9.012;2023-04-24T08:32:55;3.33;;;1.90;;
8225;SDS011;4154;48.810;9.012;2023-04-24T08:35:21;5.00;;;1.50;;
8225;SDS011;4154;48.810;9.012;2023-04-24T08:37:47;1.70;;;1.60;;
8225;SDS011;4154;48.810;9.012;2023-04-24T08:40:15;2.43;;;1.50;;
8225;SDS011;4154;48.810;9.012;2023-04-24T08:42:42;1.50;;;1.40;;
8225;SDS011;4154;48.810;9.012;2023-04-24T08:45:09;1.50;;;1.40;;
8225;SDS011;4154;48.810;9.012;2023-04-24T08:47:38;1.30;;;1.20;;
8225;SDS011;4154;48.810;9.012;2023-04-24T08:50:06;1.63;;;1.30;;
8225;SDS011;4154;48.810;9.012;2023-04-24T08:52:33;1.40;;;1.30;;
8225;SDS011;4154;48.810;9.012;2023-04-24T08:55:00;1.40;;;1.30;;
8225;SDS011;4154;48.810;9.012;2023-04-24T08:57:27;2.50;;;1.50;;
8225;SDS011;4154;48.810;9.012;2023-04-24T08:59:54;1.70;;;1.60;;
8225;SDS011;4154;48.810;9.012;2023-04-24T09:02:23;1.57;;;1.40;;
8225;SDS011;4154;48.810;9.012;2023-04-24T09:04:50;1.50;;;1.40;;
8225;SDS011;4154;48.810;9.012;2023-04-24T09:07:18;1.40;;;1.30;;
8225;SDS011;4154;48.810;9.012;2023-04-24T09:09:48;2.20;;;1.50;;
8225;SDS011;4154;48.810;9.012;2023-04-24T09:12:17;1.87;;;1.53;;
8225;SDS011;4154;48.810;9.012;2023-04-24T09:14:44;1.23;;;1.13;;
8225;SDS011;4154;48.810;9.012;2023-04-24T09:17:10;1.60;;;1.50;;
8225;SDS011;4154;48.810;9.012;2023-04-24T09:19:37;3.10;;;1.50;;
8225;SDS011;4154;48.810;9.012;2023-04-24T09:22:06;2.77;;;1.50;;
8225;SDS011;4154;48.810;9.012;2023-04-24T09:24:34;1.37;;;1.27;;
8225;SDS011;4154;48.810;9.012;2023-04-24T09:27:00;2.60;;;1.30;;
8225;SDS011;4154;48.810;9.012;2023-04-24T09:29:27;2.20;;;1.40;;
8225;SDS011;4154;48.810;9.012;2023-04-24T09:31:53;1.57;;;1.40;;
8225;SDS011;4154;48.810;9.012;2023-04-24T09:34:23;2.13;;;1.50;;
8225;SDS011;4154;48.810;9.012;2023-04-24T09:36:53;1.73;;;1.37;;
8225;SDS011;4154;48.810;9.012;2023-04-24T09:39:19;1.50;;;1.40;;
8225;SDS011;4154;48.810;9.012;2023-04-24T09:41:48;1.77;;;1.30;;
8225;SDS011;4154;48.810;9.012;2023-04-24T09:44:29;1.20;;;1.10;;
8225;SDS011;4154;48.810;9.012;2023-04-24T09:46:56;1.20;;;1.10;;
8225;SDS011;4154;48.810;9.012;2023-04-24T09:49:24;1.40;;;1.30;;
8225;SDS011;4154;48.810;9.012;2023-04-24T09:52:02;1.40;;;1.30;;
8225;SDS011;4154;48.810;9.012;2023-04-24T09:54:29;1.40;;;1.30;;
8225;SDS011;4154;48.810;9.012;2023-04-24T09:56:56;1.40;;;1.30;;
8225;SDS011;4154;48.810;9.012;2023-04-24T09:59:22;1.37;;;1.27;;
8225;SDS011;4154;48.810;9.012;2023-04-24T10:01:48;1.80;;;1.30;;
8225;SDS011;4154;48.810;9.012;2023-04-24T10:04:16;1.27;;;1.20;;
8225;SDS011;4154;48.810;9.012;2023-04-24T10:06:48;1.23;;;1.10;;
8225;SDS011;4154;48.810;9.012;2023-04-24T10:09:16;1.57;;;1.20;;
8225;SDS011;4154;48.810;9.012;2023-04-24T10:11:44;1.57;;;1.13;;
8225;SDS011;4154;48.810;9.012;2023-04-24T10:14:13;1.30;;;1.20;;
8225;SDS011;4154;48.810;9.012;2023-04-24T10:16:42;1.43;;;1.30;;
8225;SDS011;4154;48.810;9.012;2023-04-24T10:19:09;1.10;;;1.10;;
8225;SDS011;4154;48.810;9.012;2023-04-24T10:21:36;1.30;;;1.20;;
8225;SDS011;4154;48.810;9.012;2023-04-24T10:24:07;1.27;;;1.03;;
8225;SDS011;4154;48.810;9.012;2023-04-24T10:26:34;1.80;;;1.30;;
8225;SDS011;4154;48.810;9.012;2023-04-24T10:29:00;2.20;;;1.40;;
8225;SDS011;4154;48.810;9.012;2023-04-24T10:31:27;2.53;;;1.60;;
8225;SDS011;4154;48.810;9.012;2023-04-24T10:33:56;1.40;;;1.30;;
8225;SDS011;4154;48.810;9.012;2023-04-24T10:36:23;1.67;;;1.57;;
8225;SDS011;4154;48.810;9.012;2023-04-24T10:38:51;1.63;;;1.33;;
8225;SDS011;4154;48.810;9.012;2023-04-24T10:41:20;1.47;;;1.37;;
8225;SDS011;4154;48.810;9.012;2023-04-24T10:44:09;1.30;;;1.20;;
8225;SDS011;4154;48.810;9.012;2023-04-24T10:46:44;1.57;;;1.30;;
8225;SDS011;4154;48.810;9.012;2023-04-24T10:49:14;1.77;;;1.37;;
8225;SDS011;4154;48.810;9.012;2023-04-24T10:51:47;1.67;;;1.23;;
8225;SDS011;4154;48.810;9.012;2023-04-24T11:02:45;1.77;;;1.40;;
8225;SDS011;4154;48.810;9.012;2023-04-24T11:05:15;1.40;;;1.30;;
8225;SDS011;4154;48.810;9.012;2023-04-24T11:10:45;1.80;;;1.30;;
8225;SDS011;4154;48.810;9.012;2023-04-24T11:13:21;1.50;;;1.40;;
8225;SDS011;4154;48.810;9.012;2023-04-24T11:18:43;1.70;;;1.60;;
8225;SDS011;4154;48.810;9.012;2023-04-24T11:21:18;2.17;;;1.40;;
8225;SDS011;4154;48.810;9.012;2023-04-24T11:23:44;2.60;;;1.50;;
8225;SDS011;4154;48.810;9.012;2023-04-24T11:26:21;1.73;;;1.10;;
8225;SDS011;4154;48.810;9.012;2023-04-24T11:28:55;2.67;;;1.20;;
8225;SDS011;4154;48.810;9.012;2023-04-24T11:34:13;1.67;;;1.17;;
8225;SDS011;4154;48.810;9.012;2023-04-24T11:36:42;1.87;;;1.20;;
8225;SDS011;4154;48.810;9.012;2023-04-24T11:39:09;1.23;;;1.17;;
8225;SDS011;4154;48.810;9.012;2023-04-24T11:41:36;3.73;;;1.50;;
8225;SDS011;4154;48.810;9.012;2023-04-24T11:44:03;1.20;;;1.20;;
8225;SDS011;4154;48.810;9.012;2023-04-24T11:46:32;1.57;;;1.47;;
8225;SDS011;4154;48.810;9.012;2023-04-24T11:48:59;1.97;;;1.20;;
8225;SDS011;4154;48.810;9.012;2023-04-24T11:51:25;1.57;;;1.47;;
8225;SDS011;4154;48.810;9.012;2023-04-24T11:53:55;1.60;;;1.50;;
8225;SDS011;4154;48.810;9.012;2023-04-24T11:56:22;1.63;;;1.53;;
8225;SDS011;4154;48.810;9.012;2023-04-24T11:58:51;1.70;;;1.60;;
8225;SDS011;4154;48.810;9.012;2023-04-24T12:01:19;1.50;;;1.40;;
8225;SDS011;4154;48.810;9.012;2023-04-24T12:03:49;1.60;;;1.50;;
8225;SDS011;4154;48.810;9.012;2023-04-24T12:06:16;1.40;;;1.30;;
8225;SDS011;4154;48.810;9.012;2023-04-24T12:08:45;3.13;;;1.40;;
8225;SDS011;4154;48.810;9.012;2023-04-24T12:11:14;1.40;;;1.30;;
8225;SDS011;4154;48.810;9.012;2023-04-24T12:13:42;1.43;;;1.33;;
8225;SDS011;4154;48.810;9.012;2023-04-24T12:16:09;1.50;;;1.30;;
8225;SDS011;4154;48.810;9.012;2023-04-24T12:18:40;1.73;;;1.30;;
8225;SDS011;4154;48.810;9.012;2023-04-24T12:21:15;1.40;;;1.30;;
8225;SDS011;4154;48.810;9.012;2023-04-24T12:23:49;1.67;;;1.50;;
8225;SDS011;4154;48.810;9.012;2023-04-24T12:26:16;2.47;;;1.47;;
8225;SDS011;4154;48.810;9.012;2023-04-24T12:28:46;2.70;;;1.50;;
8225;SDS011;4154;48.810;9.012;2023-04-24T12:31:15;1.37;;;1.27;;
8225;SDS011;4154;48.810;9.012;2023-04-24T12:33:41;1.63;;;1.50;;
8225;SDS011;4154;48.810;9.012;2023-04-24T12:36:11;1.43;;;1.33;;
8225;SDS011;4154;48.810;9.012;2023-04-24T12:38:37;1.60;;;1.50;;
8225;SDS011;4154;48.810;9.012;2023-04-24T12:41:10;1.43;;;1.30;;
8225;SDS011;4154;48.810;9.012;2023-04-24T12:43:38;1.30;;;1.20;;
8225;SDS011;4154;48.810;9.012;2023-04-24T12:46:15;1.40;;;1.30;;
8225;SDS011;4154;48.810;9.012;2023-04-24T12:48:41;1.33;;;1.30;;
8225;SDS011;4154;48.810;9.012;2023-04-24T12:51:06;2.57;;;1.60;;
8225;SDS011;4154;48.810;9.012;2023-04-24T12:53:32;1.80;;;1.50;;
8225;SDS011;4154;48.810;9.012;2023-04-24T12:55:58;1.60;;;1.40;;
8225;SDS011;4154;48.810;9.012;2023-04-24T12:58:24;2.27;;;1.40;;
8225;SDS011;4154;48.810;9.012;2023-04-24T13:00:50;1.90;;;1.80;;
8225;SDS011;4154;48.810;9.012;2023-04-24T13:03:16;2.10;;;1.70;;
8225;SDS011;4154;48.810;9.012;2023-04-24T13:05:43;2.10;;;1.90;;
8225;SDS011;4154;48.810;9.012;2023-04-24T13:08:09;2.23;;;1.87;;
8225;SDS011;4154;48.810;9.012;2023-04-24T13:10:35;1.80;;;1.70;;
8225;SDS011;4154;48.810;9.012;2023-04-24T13:13:01;2.27;;;1.90;;
8225;SDS011;4154;48.810;9.012;2023-04-24T13:15:28;1.90;;;1.80;;
8225;SDS011;4154;48.810;9.012;2023-04-24T13:17:54;1.70;;;1.60;;
8225;SDS011;4154;48.810;9.012;2023-04-24T13:20:20;3.00;;;1.80;;
8225;SDS011;4154;48.810;9.012;2023-04-24T13:22:46;2.17;;;1.70;;
8225;SDS011;4154;48.810;9.012;2023-04-24T13:25:13;1.67;;;1.50;;
8225;SDS011;4154;48.810;9.012;2023-04-24T13:27:41;2.27;;;1.50;;
8225;SDS011;4154;48.810;9.012;2023-04-24T13:30:07;2.30;;;2.00;;
8225;SDS011;4154;48.810;9.012;2023-04-24T13:32:34;1.80;;;1.70;;
8225;SDS011;4154;48.810;9.012;2023-04-24T13:35:00;1.70;;;1.60;;
8225;SDS011;4154;48.810;9.012;2023-04-24T13:37:27;1.77;;;1.50;;
8225;SDS011;4154;48.810;9.012;2023-04-24T13:39:53;1.87;;;1.57;;
8225;SDS011;4154;48.810;9.012;2023-04-24T13:42:19;2.30;;;1.50;;
8225;SDS011;4154;48.810;9.012;2023-04-24T13:44:45;1.40;;;1.30;;
8225;SDS011;4154;48.810;9.012;2023-04-24T13:47:11;2.67;;;1.40;;
8225;SDS011;4154;48.810;9.012;2023-04-24T13:49:37;1.50;;;1.40;;
8225;SDS011;4154;48.810;9.012;2023-04-24T13:52:03;1.40;;;1.30;;
8225;SDS011;4154;48.810;9.012;2023-04-24T13:54:30;1.93;;;1.30;;
8225;SDS011;4154;48.810;9.012;2023-04-24T13:56:57;1.40;;;1.30;;
8225;SDS011;4154;48.810;9.012;2023-04-24T13:59:23;1.50;;;1.40;;
8225;SDS011;4154;48.810;9.012;2023-04-24T14:01:49;1.63;;;1.40;;
8225;SDS011;4154;48.810;9.012;2023-04-24T14:04:15;1.53;;;1.43;;
8225;SDS011;4154;48.810;9.012;2023-04-24T14:06:41;1.80;;;1.70;;
8225;SDS011;4154;48.810;9.012;2023-04-24T14:09:07;1.50;;;1.40;;
8225;SDS011;4154;48.810;9.012;2023-04-24T14:11:33;1.73;;;1.63;;
8225;SDS011;4154;48.810;9.012;2023-04-24T14:13:59;1.70;;;1.60;;
8225;SDS011;4154;48.810;9.012;2023-04-24T14:16:25;1.73;;;1.63;;
8225;SDS011;4154;48.810;9.012;2023-04-24T14:18:50;1.70;;;1.50;;
8225;SDS011;4154;48.810;9.012;2023-04-24T14:21:17;1.87;;;1.77;;
8225;SDS011;4154;48.810;9.012;2023-04-24T14:23:43;1.33;;;1.30;;
8225;SDS011;4154;48.810;9.012;2023-04-24T14:26:09;1.70;;;1.60;;
8225;SDS011;4154;48.810;9.012;2023-04-24T14:28:34;1.80;;;1.70;;
8225;SDS011;4154;48.810;9.012;2023-04-24T14:31:00;1.70;;;1.60;;
8225;SDS011;4154;48.810;9.012;2023-04-24T14:33:26;1.60;;;1.50;;
8225;SDS011;4154;48.810;9.012;2023-04-24T14:35:52;1.93;;;1.83;;
8225;SDS011;4154;48.810;9.012;2023-04-24T14:38:18;1.70;;;1.60;;
8225;SDS011;4154;48.810;9.012;2023-04-24T14:40:44;1.87;;;1.60;;
8225;SDS011;4154;48.810;9.012;2023-04-24T14:43:10;1.63;;;1.53;;
8225;SDS011;4154;48.810;9.012;2023-04-24T14:45:38;1.93;;;1.70;;
8225;SDS011;4154;48.810;9.012;2023-04-24T14:48:06;1.87;;;1.77;;
8225;SDS011;4154;48.810;9.012;2023-04-24T14:50:33;1.87;;;1.70;;
8225;SDS011;4154;48.810;9.012;2023-04-24T14:52:58;1.83;;;1.70;;
8225;SDS011;4154;48.810;9.012;2023-04-24T14:55:26;1.80;;;1.70;;
8225;SDS011;4154;48.810;9.012;2023-04-24T14:57:52;2.17;;;1.80;;
8225;SDS011;4154;48.810;9.012;2023-04-24T15:00:19;1.93;;;1.70;;
8225;SDS011;4154;48.810;9.012;2023-04-24T15:02:48;1.80;;;1.70;;
8225;SDS011;4154;48.810;9.012;2023-04-24T15:05:14;2.33;;;1.67;;
8225;SDS011;4154;48.810;9.012;2023-04-24T15:07:40;1.70;;;1.60;;
8225;SDS011;4154;48.810;9.012;2023-04-24T15:10:10;2.77;;;1.90;;
8225;SDS011;4154;48.810;9.012;2023-04-24T15:12:36;1.60;;;1.50;;
8225;SDS011;4154;48.810;9.012;2023-04-24T15:15:02;1.90;;;1.80;;
8225;SDS011;4154;48.810;9.012;2023-04-24T15:17:29;2.53;;;2.00;;
8225;SDS011;4154;48.810;9.012;2023-04-24T15:19:55;2.67;;;2.13;;
8225;SDS011;4154;48.810;9.012;2023-04-24T15:22:21;2.07;;;1.97;;
8225;SDS011;4154;48.810;9.012;2023-04-24T15:24:47;2.40;;;2.20;;
8225;SDS011;4154;48.810;9.012;2023-04-24T15:27:13;2.50;;;2.10;;
8225;SDS011;4154;48.810;9.012;2023-04-24T15:29:40;3.53;;;1.90;;